sensor_id;sensor_type;location;lat;lon;timestamp;temperature;humidity
41694;DHT22;27377;50.666;9.150;2024-02-21T00:01:40;7.60;99.90
41694;DHT22;27377;50.666;9.150;2024-02-21T00:04:25;7.60;99.90
41694;DHT22;27377;50.666;9.150;2024-02-21T00:07:09;7.70;99.90
41694;DHT22;27377;50.666;9.150;2024-02-21T00:09:53;7.60;99.90
41694;DHT22;27377;50.666;9.150;2024-02-21T00:12:37;7.60;99.90
41694;DHT22;27377;50.666;9.150;2024-02-21T00:15:21;7.60;99.90
41694;DHT22;27377;50.666;9.150;2024-02-21T00:18:05;7.60;99.90
41694;DHT22;27377;50.666;9.150;2024-02-21T00:20:49;7.60;99.90
41694;DHT22;27377;50.666;9.150;2024-02-21T00:23:34;7.60;99.90
41694;DHT22;27377;50.666;9.150;2024-02-21T00:26:18;7.60;99.90
41694;DHT22;27377;50.666;9.150;2024-02-21T00:29:02;7.60;99.90
41694;DHT22;27377;50.666;9.150;2024-02-21T00:31:48;7.60;99.90
41694;DHT22;27377;50.666;9.150;2024-02-21T00:34:33;7.60;99.90
41694;DHT22;27377;50.666;9.150;2024-02-21T00:37:17;7.60;99.90
41694;DHT22;27377;50.666;9.150;2024-02-21T00:40:01;7.60;99.90
41694;DHT22;27377;50.666;9.150;2024-02-21T00:42:46;7.60;99.90
41694;DHT22;27377;50.666;9.150;2024-02-21T00:45:30;7.60;99.90
41694;DHT22;27377;50.666;9.150;2024-02-21T00:48:14;7.60;99.90
41694;DHT22;27377;50.666;9.150;2024-02-21T00:50:58;7.60;99.90
41694;DHT22;27377;50.666;9.150;2024-02-21T00:53:42;7.60;99.90
41694;DHT22;27377;50.666;9.150;2024-02-21T00:56:27;7.60;99.90
41694;DHT22;27377;50.666;9.150;2024-02-21T00:59:11;7.60;99.90
41694;DHT22;27377;50.666;9.150;2024-02-21T01:01:55;7.60;99.90
41694;DHT22;27377;50.666;9.150;2024-02-21T01:04:39;7.60;99.90
41694;DHT22;27377;50.666;9.150;2024-02-21T01:07:24;7.60;99.90
41694;DHT22;27377;50.666;9.150;2024-02-21T01:10:08;7.60;99.90
41694;DHT22;27377;50.666;9.150;2024-02-21T01:12:53;7.60;99.90
41694;DHT22;27377;50.666;9.150;2024-02-21T01:15:37;7.60;99.90
41694;DHT22;27377;50.666;9.150;2024-02-21T01:18:21;7.60;99.90
41694;DHT22;27377;50.666;9.150;2024-02-21T01:21:05;7.60;99.90
41694;DHT22;27377;50.666;9.150;2024-02-21T01:23:53;7.60;99.90
41694;DHT22;27377;50.666;9.150;2024-02-21T01:26:37;7.60;99.90
41694;DHT22;27377;50.666;9.150;2024-02-21T01:29:21;7.60;99.90
41694;DHT22;27377;50.666;9.150;2024-02-21T01:32:06;7.50;99.90
41694;DHT22;27377;50.666;9.150;2024-02-21T01:34:50;7.60;99.90
41694;DHT22;27377;50.666;9.150;2024-02-21T01:37:35;7.60;99.90
41694;DHT22;27377;50.666;9.150;2024-02-21T01:40:19;7.50;99.90
41694;DHT22;27377;50.666;9.150;2024-02-21T01:43:03;7.50;99.90
41694;DHT22;27377;50.666;9.150;2024-02-21T01:45:52;7.50;99.90
41694;DHT22;27377;50.666;9.150;2024-02-21T01:48:37;7.60;99.90
41694;DHT22;27377;50.666;9.150;2024-02-21T01:51:22;7.50;99.90
41694;DHT22;27377;50.666;9.150;2024-02-21T01:54:06;7.50;99.90
41694;DHT22;27377;50.666;9.150;2024-02-21T01:56:50;7.50;99.90
41694;DHT22;27377;50.666;9.150;2024-02-21T01:59:35;7.50;99.90
41694;DHT22;27377;50.666;9.150;2024-02-21T02:02:19;7.50;99.90
41694;DHT22;27377;50.666;9.150;2024-02-21T02:05:04;7.50;99.90
41694;DHT22;27377;50.666;9.150;2024-02-21T02:07:50;7.50;99.90
41694;DHT22;27377;50.666;9.150;2024-02-21T02:10:34;7.50;99.90
41694;DHT22;27377;50.666;9.150;2024-02-21T02:13:18;7.50;99.90
41694;DHT22;27377;50.666;9.150;2024-02-21T02:16:03;7.50;99.90
41694;DHT22;27377;50.666;9.150;2024-02-21T02:18:47;7.50;99.90
41694;DHT22;27377;50.666;9.150;2024-02-21T02:21:45;7.50;99.90
41694;DHT22;27377;50.666;9.150;2024-02-21T02:24:30;7.50;99.90
41694;DHT22;27377;50.666;9.150;2024-02-21T02:27:14;7.50;99.90
41694;DHT22;27377;50.666;9.150;2024-02-21T02:29:59;7.50;99.90
41694;DHT22;27377;50.666;9.150;2024-02-21T02:32:45;7.50;99.90
41694;DHT22;27377;50.666;9.150;2024-02-21T02:35:30;7.40;99.90
41694;DHT22;27377;50.666;9.150;2024-02-21T02:38:14;7.50;99.90
41694;DHT22;27377;50.666;9.150;2024-02-21T02:40:59;7.50;99.90
41694;DHT22;27377;50.666;9.150;2024-02-21T02:43:43;7.50;99.90
41694;DHT22;27377;50.666;9.150;2024-02-21T02:46:27;7.50;99.90
41694;DHT22;27377;50.666;9.150;2024-02-21T02:49:11;7.50;99.90
41694;DHT22;27377;50.666;9.150;2024-02-21T02:51:55;7.50;99.90
41694;DHT22;27377;50.666;9.150;2024-02-21T02:54:39;7.50;99.90
41694;DHT22;27377;50.666;9.150;2024-02-21T02:57:24;7.50;99.90
41694;DHT22;27377;50.666;9.150;2024-02-21T03:00:09;7.50;99.90
41694;DHT22;27377;50.666;9.150;2024-02-21T03:02:54;7.50;99.90
41694;DHT22;27377;50.666;9.150;2024-02-21T03:05:38;7.40;99.90
41694;DHT22;27377;50.666;9.150;2024-02-21T03:08:23;7.40;99.90
41694;DHT22;27377;50.666;9.150;2024-02-21T03:11:07;7.50;99.90
41694;DHT22;27377;50.666;9.150;2024-02-21T03:13:52;7.50;99.90
41694;DHT22;27377;50.666;9.150;2024-02-21T03:16:37;7.40;99.90
41694;DHT22;27377;50.666;9.150;2024-02-21T03:19:21;7.50;99.90
41694;DHT22;27377;50.666;9.150;2024-02-21T03:22:06;7.50;99.90
41694;DHT22;27377;50.666;9.150;2024-02-21T03:24:50;7.50;99.90
41694;DHT22;27377;50.666;9.150;2024-02-21T03:27:34;7.50;99.90
41694;DHT22;27377;50.666;9.150;2024-02-21T03:30:19;7.40;99.90
41694;DHT22;27377;50.666;9.150;2024-02-21T03:33:05;7.50;99.90
41694;DHT22;27377;50.666;9.150;2024-02-21T03:35:52;7.50;99.90
41694;DHT22;27377;50.666;9.150;2024-02-21T03:38:43;7.50;99.90
41694;DHT22;27377;50.666;9.150;2024-02-21T03:41:27;7.50;99.90
41694;DHT22;27377;50.666;9.150;2024-02-21T03:44:11;7.50;99.90
41694;DHT22;27377;50.666;9.150;2024-02-21T03:46:56;7.40;99.90
41694;DHT22;27377;50.666;9.150;2024-02-21T03:49:44;7.40;99.90
41694;DHT22;27377;50.666;9.150;2024-02-21T03:52:28;7.50;99.90
41694;DHT22;27377;50.666;9.150;2024-02-21T03:55:13;7.50;99.90
41694;DHT22;27377;50.666;9.150;2024-02-21T03:57:57;7.50;99.90
41694;DHT22;27377;50.666;9.150;2024-02-21T04:00:42;7.50;99.90
41694;DHT22;27377;50.666;9.150;2024-02-21T04:03:30;7.50;99.90
41694;DHT22;27377;50.666;9.150;2024-02-21T04:06:14;7.50;99.90
41694;DHT22;27377;50.666;9.150;2024-02-21T04:08:59;7.40;99.90
41694;DHT22;27377;50.666;9.150;2024-02-21T04:11:46;7.40;99.90
41694;DHT22;27377;50.666;9.150;2024-02-21T04:14:30;7.40;99.90
41694;DHT22;27377;50.666;9.150;2024-02-21T04:17:14;7.40;99.90
41694;DHT22;27377;50.666;9.150;2024-02-21T04:20:04;7.40;99.90
41694;DHT22;27377;50.666;9.150;2024-02-21T04:22:49;7.40;99.90
41694;DHT22;27377;50.666;9.150;2024-02-21T04:25:34;7.40;99.90
41694;DHT22;27377;50.666;9.150;2024-02-21T04:28:19;7.40;99.90
41694;DHT22;27377;50.666;9.150;2024-02-21T04:31:03;7.40;99.90
41694;DHT22;27377;50.666;9.150;2024-02-21T04:33:48;7.40;99.90
41694;DHT22;27377;50.666;9.150;2024-02-21T04:36:32;7.40;99.90
41694;DHT22;27377;50.666;9.150;2024-02-21T04:39:20;7.40;99.90
41694;DHT22;27377;50.666;9.150;2024-02-21T04:42:04;7.40;99.90
41694;DHT22;27377;50.666;9.150;2024-02-21T04:44:52;7.40;99.90
41694;DHT22;27377;50.666;9.150;2024-02-21T04:47:40;7.40;99.90
41694;DHT22;27377;50.666;9.150;2024-02-21T04:50:24;7.40;99.90
41694;DHT22;27377;50.666;9.150;2024-02-21T04:53:09;7.40;99.90
41694;DHT22;27377;50.666;9.150;2024-02-21T04:55:59;7.40;99.90
41694;DHT22;27377;50.666;9.150;2024-02-21T04:58:43;7.40;99.90
41694;DHT22;27377;50.666;9.150;2024-02-21T05:01:28;7.40;99.90
41694;DHT22;27377;50.666;9.150;2024-02-21T05:04:13;7.40;99.90
41694;DHT22;27377;50.666;9.150;2024-02-21T05:07:00;7.40;99.90
41694;DHT22;27377;50.666;9.150;2024-02-21T05:09:45;7.30;99.90
41694;DHT22;27377;50.666;9.150;2024-02-21T05:12:29;7.40;99.90
41694;DHT22;27377;50.666;9.150;2024-02-21T05:15:14;7.30;99.90
41694;DHT22;27377;50.666;9.150;2024-02-21T05:17:58;7.30;99.90
41694;DHT22;27377;50.666;9.150;2024-02-21T05:20:45;7.40;99.90
41694;DHT22;27377;50.666;9.150;2024-02-21T05:23:30;7.30;99.90
41694;DHT22;27377;50.666;9.150;2024-02-21T05:26:21;7.30;99.90
41694;DHT22;27377;50.666;9.150;2024-02-21T05:29:05;7.30;99.90
41694;DHT22;27377;50.666;9.150;2024-02-21T05:34:37;7.30;99.90
41694;DHT22;27377;50.666;9.150;2024-02-21T05:37:22;7.30;99.90
41694;DHT22;27377;50.666;9.150;2024-02-21T05:40:06;7.30;99.90
41694;DHT22;27377;50.666;9.150;2024-02-21T05:42:52;7.30;99.90
41694;DHT22;27377;50.666;9.150;2024-02-21T05:45:37;7.30;99.90
41694;DHT22;27377;50.666;9.150;2024-02-21T05:48:23;7.30;99.90
41694;DHT22;27377;50.666;9.150;2024-02-21T05:51:07;7.30;99.90
41694;DHT22;27377;50.666;9.150;2024-02-21T05:53:51;7.30;99.90
41694;DHT22;27377;50.666;9.150;2024-02-21T05:56:35;7.30;99.90
41694;DHT22;27377;50.666;9.150;2024-02-21T05:59:19;7.30;99.90
41694;DHT22;27377;50.666;9.150;2024-02-21T06:02:03;7.30;99.90
41694;DHT22;27377;50.666;9.150;2024-02-21T06:04:48;7.30;99.90
41694;DHT22;27377;50.666;9.150;2024-02-21T06:07:32;7.30;99.90
41694;DHT22;27377;50.666;9.150;2024-02-21T06:10:16;7.30;99.90
41694;DHT22;27377;50.666;9.150;2024-02-21T06:13:00;7.30;99.90
41694;DHT22;27377;50.666;9.150;2024-02-21T06:15:44;7.30;99.90
41694;DHT22;27377;50.666;9.150;2024-02-21T06:18:28;7.30;99.90
41694;DHT22;27377;50.666;9.150;2024-02-21T06:21:12;7.30;99.90
41694;DHT22;27377;50.666;9.150;2024-02-21T06:23:57;7.30;99.90
41694;DHT22;27377;50.666;9.150;2024-02-21T06:26:41;7.30;99.90
41694;DHT22;27377;50.666;9.150;2024-02-21T06:29:25;7.30;99.90
41694;DHT22;27377;50.666;9.150;2024-02-21T06:32:09;7.30;99.90
41694;DHT22;27377;50.666;9.150;2024-02-21T06:34:53;7.30;99.90
41694;DHT22;27377;50.666;9.150;2024-02-21T06:37:37;7.30;99.90
41694;DHT22;27377;50.666;9.150;2024-02-21T06:40:23;7.30;99.90
41694;DHT22;27377;50.666;9.150;2024-02-21T06:43:07;7.30;99.90
41694;DHT22;27377;50.666;9.150;2024-02-21T06:45:51;7.30;99.90
41694;DHT22;27377;50.666;9.150;2024-02-21T06:48:35;7.30;99.90
41694;DHT22;27377;50.666;9.150;2024-02-21T06:51:19;7.30;99.90
41694;DHT22;27377;50.666;9.150;2024-02-21T06:54:03;7.30;99.90
41694;DHT22;27377;50.666;9.150;2024-02-21T06:56:47;7.30;99.90
41694;DHT22;27377;50.666;9.150;2024-02-21T06:59:31;7.40;99.90
41694;DHT22;27377;50.666;9.150;2024-02-21T07:02:15;7.40;99.90
41694;DHT22;27377;50.666;9.150;2024-02-21T07:05:00;7.30;99.90
41694;DHT22;27377;50.666;9.150;2024-02-21T07:07:44;7.30;99.90
41694;DHT22;27377;50.666;9.150;2024-02-21T07:10:28;7.30;99.90
41694;DHT22;27377;50.666;9.150;2024-02-21T07:13:13;7.30;99.90
41694;DHT22;27377;50.666;9.150;2024-02-21T07:15:59;7.30;99.90
41694;DHT22;27377;50.666;9.150;2024-02-21T07:18:43;7.30;99.90
41694;DHT22;27377;50.666;9.150;2024-02-21T07:21:28;7.30;99.90
41694;DHT22;27377;50.666;9.150;2024-02-21T07:24:12;7.30;99.90
41694;DHT22;27377;50.666;9.150;2024-02-21T07:26:56;7.30;99.90
41694;DHT22;27377;50.666;9.150;2024-02-21T07:29:40;7.30;99.90
41694;DHT22;27377;50.666;9.150;2024-02-21T07:32:24;7.30;99.90
41694;DHT22;27377;50.666;9.150;2024-02-21T07:35:08;7.30;99.90
41694;DHT22;27377;50.666;9.150;2024-02-21T07:37:56;7.30;99.90
41694;DHT22;27377;50.666;9.150;2024-02-21T07:40:40;7.30;99.90
41694;DHT22;27377;50.666;9.150;2024-02-21T07:43:24;7.30;99.90
41694;DHT22;27377;50.666;9.150;2024-02-21T07:46:10;7.30;99.90
41694;DHT22;27377;50.666;9.150;2024-02-21T07:48:54;7.30;99.90
41694;DHT22;27377;50.666;9.150;2024-02-21T07:51:38;7.30;99.90
41694;DHT22;27377;50.666;9.150;2024-02-21T07:54:22;7.30;99.90
41694;DHT22;27377;50.666;9.150;2024-02-21T07:57:07;7.30;99.90
41694;DHT22;27377;50.666;9.150;2024-02-21T07:59:51;7.30;99.90
41694;DHT22;27377;50.666;9.150;2024-02-21T08:02:35;7.30;99.90
41694;DHT22;27377;50.666;9.150;2024-02-21T08:05:19;7.30;99.90
41694;DHT22;27377;50.666;9.150;2024-02-21T08:08:04;7.30;99.90
41694;DHT22;27377;50.666;9.150;2024-02-21T08:10:51;7.30;99.90
41694;DHT22;27377;50.666;9.150;2024-02-21T08:13:35;7.30;99.90
41694;DHT22;27377;50.666;9.150;2024-02-21T08:16:19;7.30;99.90
41694;DHT22;27377;50.666;9.150;2024-02-21T08:19:03;7.30;99.90
41694;DHT22;27377;50.666;9.150;2024-02-21T08:21:48;7.30;99.90
41694;DHT22;27377;50.666;9.150;2024-02-21T08:24:32;7.40;99.90
41694;DHT22;27377;50.666;9.150;2024-02-21T08:27:16;7.30;99.90
41694;DHT22;27377;50.666;9.150;2024-02-21T08:30:01;7.30;99.90
41694;DHT22;27377;50.666;9.150;2024-02-21T08:32:45;7.30;99.90
41694;DHT22;27377;50.666;9.150;2024-02-21T08:35:29;7.30;99.90
41694;DHT22;27377;50.666;9.150;2024-02-21T08:38:13;7.40;99.90
41694;DHT22;27377;50.666;9.150;2024-02-21T08:40:57;7.30;99.90
41694;DHT22;27377;50.666;9.150;2024-02-21T08:43:41;7.30;99.90
41694;DHT22;27377;50.666;9.150;2024-02-21T08:46:25;7.40;99.90
41694;DHT22;27377;50.666;9.150;2024-02-21T08:49:10;7.40;99.90
41694;DHT22;27377;50.666;9.150;2024-02-21T08:51:54;7.30;99.90
41694;DHT22;27377;50.666;9.150;2024-02-21T08:54:38;7.40;99.90
41694;DHT22;27377;50.666;9.150;2024-02-21T08:57:22;7.40;99.90
41694;DHT22;27377;50.666;9.150;2024-02-21T09:00:07;7.40;99.90
41694;DHT22;27377;50.666;9.150;2024-02-21T09:02:54;7.40;99.90
41694;DHT22;27377;50.666;9.150;2024-02-21T09:05:39;7.40;99.90
41694;DHT22;27377;50.666;9.150;2024-02-21T09:08:23;7.40;99.90
41694;DHT22;27377;50.666;9.150;2024-02-21T09:11:09;7.40;99.90
41694;DHT22;27377;50.666;9.150;2024-02-21T09:13:53;7.40;99.90
41694;DHT22;27377;50.666;9.150;2024-02-21T09:16:38;7.40;99.90
41694;DHT22;27377;50.666;9.150;2024-02-21T09:19:22;7.40;99.90
41694;DHT22;27377;50.666;9.150;2024-02-21T09:22:06;7.40;99.90
41694;DHT22;27377;50.666;9.150;2024-02-21T09:24:50;7.40;99.90
41694;DHT22;27377;50.666;9.150;2024-02-21T09:27:34;7.40;99.90
41694;DHT22;27377;50.666;9.150;2024-02-21T09:30:18;7.40;99.90
41694;DHT22;27377;50.666;9.150;2024-02-21T09:33:03;7.40;99.90
41694;DHT22;27377;50.666;9.150;2024-02-21T09:35:49;7.40;99.90
41694;DHT22;27377;50.666;9.150;2024-02-21T09:38:33;7.40;99.90
41694;DHT22;27377;50.666;9.150;2024-02-21T09:41:18;7.40;99.90
41694;DHT22;27377;50.666;9.150;2024-02-21T09:44:06;7.40;99.90
41694;DHT22;27377;50.666;9.150;2024-02-21T09:47:06;7.40;99.90
41694;DHT22;27377;50.666;9.150;2024-02-21T09:49:51;7.40;99.90
41694;DHT22;27377;50.666;9.150;2024-02-21T09:52:36;7.50;99.90
41694;DHT22;27377;50.666;9.150;2024-02-21T09:55:23;7.50;99.90
41694;DHT22;27377;50.666;9.150;2024-02-21T09:58:08;7.50;99.90
41694;DHT22;27377;50.666;9.150;2024-02-21T10:00:53;7.50;99.90
41694;DHT22;27377;50.666;9.150;2024-02-21T10:03:37;7.50;99.90
41694;DHT22;27377;50.666;9.150;2024-02-21T10:06:21;7.60;99.90
41694;DHT22;27377;50.666;9.150;2024-02-21T10:09:08;7.60;99.90
41694;DHT22;27377;50.666;9.150;2024-02-21T10:11:52;7.60;99.90
41694;DHT22;27377;50.666;9.150;2024-02-21T10:14:36;7.60;99.90
41694;DHT22;27377;50.666;9.150;2024-02-21T10:17:20;7.60;99.90
41694;DHT22;27377;50.666;9.150;2024-02-21T10:20:11;7.60;99.90
41694;DHT22;27377;50.666;9.150;2024-02-21T10:23:05;7.60;99.90
41694;DHT22;27377;50.666;9.150;2024-02-21T10:25:53;7.60;99.90
41694;DHT22;27377;50.666;9.150;2024-02-21T10:28:38;7.70;99.90
41694;DHT22;27377;50.666;9.150;2024-02-21T10:31:29;7.70;99.90
41694;DHT22;27377;50.666;9.150;2024-02-21T10:34:16;7.70;99.90
41694;DHT22;27377;50.666;9.150;2024-02-21T10:37:02;7.70;99.90
41694;DHT22;27377;50.666;9.150;2024-02-21T10:39:47;7.70;99.90
41694;DHT22;27377;50.666;9.150;2024-02-21T10:42:32;7.70;99.90
41694;DHT22;27377;50.666;9.150;2024-02-21T10:45:19;7.70;99.90
41694;DHT22;27377;50.666;9.150;2024-02-21T10:48:13;7.70;99.90
41694;DHT22;27377;50.666;9.150;2024-02-21T10:51:18;7.80;99.90
41694;DHT22;27377;50.666;9.150;2024-02-21T10:54:30;7.70;99.90
41694;DHT22;27377;50.666;9.150;2024-02-21T10:57:19;7.70;99.90
41694;DHT22;27377;50.666;9.150;2024-02-21T11:00:06;7.70;99.90
41694;DHT22;27377;50.666;9.150;2024-02-21T11:02:59;7.80;99.90
41694;DHT22;27377;50.666;9.150;2024-02-21T11:05:45;7.70;99.90
41694;DHT22;27377;50.666;9.150;2024-02-21T11:08:29;7.80;99.90
41694;DHT22;27377;50.666;9.150;2024-02-21T11:11:13;7.80;99.90
41694;DHT22;27377;50.666;9.150;2024-02-21T11:14:09;7.80;99.90
41694;DHT22;27377;50.666;9.150;2024-02-21T11:16:55;7.80;99.90
41694;DHT22;27377;50.666;9.150;2024-02-21T11:19:42;7.80;99.90
41694;DHT22;27377;50.666;9.150;2024-02-21T11:22:26;7.80;99.90
41694;DHT22;27377;50.666;9.150;2024-02-21T11:25:21;7.80;99.90
41694;DHT22;27377;50.666;9.150;2024-02-21T11:28:05;7.80;99.90
41694;DHT22;27377;50.666;9.150;2024-02-21T11:30:50;7.80;99.90
41694;DHT22;27377;50.666;9.150;2024-02-21T11:33:35;7.80;99.90
41694;DHT22;27377;50.666;9.150;2024-02-21T11:36:27;7.80;99.90
41694;DHT22;27377;50.666;9.150;2024-02-21T11:39:11;7.80;99.90
41694;DHT22;27377;50.666;9.150;2024-02-21T11:42:05;7.90;99.90
41694;DHT22;27377;50.666;9.150;2024-02-21T11:44:49;7.90;99.90
41694;DHT22;27377;50.666;9.150;2024-02-21T11:47:34;7.90;99.90
41694;DHT22;27377;50.666;9.150;2024-02-21T11:50:18;8.00;99.90
41694;DHT22;27377;50.666;9.150;2024-02-21T11:53:03;8.00;99.90
41694;DHT22;27377;50.666;9.150;2024-02-21T11:55:47;8.00;99.90
41694;DHT22;27377;50.666;9.150;2024-02-21T11:58:31;8.00;99.90
41694;DHT22;27377;50.666;9.150;2024-02-21T12:01:16;8.00;99.90
41694;DHT22;27377;50.666;9.150;2024-02-21T12:04:00;8.00;99.90
41694;DHT22;27377;50.666;9.150;2024-02-21T12:06:45;8.00;99.90
41694;DHT22;27377;50.666;9.150;2024-02-21T12:09:29;8.00;99.90
41694;DHT22;27377;50.666;9.150;2024-02-21T12:12:19;8.00;99.90
41694;DHT22;27377;50.666;9.150;2024-02-21T12:15:05;8.00;99.90
41694;DHT22;27377;50.666;9.150;2024-02-21T12:17:49;8.10;99.90
41694;DHT22;27377;50.666;9.150;2024-02-21T12:20:35;8.00;99.90
41694;DHT22;27377;50.666;9.150;2024-02-21T12:23:20;8.10;99.90
41694;DHT22;27377;50.666;9.150;2024-02-21T12:26:04;8.10;99.90
41694;DHT22;27377;50.666;9.150;2024-02-21T12:28:49;8.10;99.90
41694;DHT22;27377;50.666;9.150;2024-02-21T12:31:33;8.10;99.90
41694;DHT22;27377;50.666;9.150;2024-02-21T12:34:17;8.10;99.90
41694;DHT22;27377;50.666;9.150;2024-02-21T12:37:02;8.10;99.90
41694;DHT22;27377;50.666;9.150;2024-02-21T12:39:47;8.10;99.90
41694;DHT22;27377;50.666;9.150;2024-02-21T12:42:31;8.10;99.90
41694;DHT22;27377;50.666;9.150;2024-02-21T12:45:15;8.10;99.90
41694;DHT22;27377;50.666;9.150;2024-02-21T12:47:59;8.10;99.90
41694;DHT22;27377;50.666;9.150;2024-02-21T12:50:50;8.10;99.90
41694;DHT22;27377;50.666;9.150;2024-02-21T12:53:38;8.20;99.90
41694;DHT22;27377;50.666;9.150;2024-02-21T12:56:23;8.20;99.90
41694;DHT22;27377;50.666;9.150;2024-02-21T12:59:08;8.20;99.90
41694;DHT22;27377;50.666;9.150;2024-02-21T13:01:55;8.20;99.90
41694;DHT22;27377;50.666;9.150;2024-02-21T13:04:39;8.20;99.90
41694;DHT22;27377;50.666;9.150;2024-02-21T13:07:25;8.20;99.90
41694;DHT22;27377;50.666;9.150;2024-02-21T13:10:09;8.20;99.90
41694;DHT22;27377;50.666;9.150;2024-02-21T13:12:53;8.20;99.90
41694;DHT22;27377;50.666;9.150;2024-02-21T13:15:37;8.30;99.90
41694;DHT22;27377;50.666;9.150;2024-02-21T13:18:26;8.20;99.90
41694;DHT22;27377;50.666;9.150;2024-02-21T13:21:11;8.20;99.90
41694;DHT22;27377;50.666;9.150;2024-02-21T13:23:56;8.20;99.90
41694;DHT22;27377;50.666;9.150;2024-02-21T13:26:40;8.20;99.90
41694;DHT22;27377;50.666;9.150;2024-02-21T13:29:24;8.30;99.90
41694;DHT22;27377;50.666;9.150;2024-02-21T13:32:08;8.30;99.90
41694;DHT22;27377;50.666;9.150;2024-02-21T13:34:53;8.30;99.90
41694;DHT22;27377;50.666;9.150;2024-02-21T13:37:40;8.30;99.90
41694;DHT22;27377;50.666;9.150;2024-02-21T13:40:24;8.30;99.90
41694;DHT22;27377;50.666;9.150;2024-02-21T13:43:09;8.30;99.90
41694;DHT22;27377;50.666;9.150;2024-02-21T13:46:01;8.30;99.90
41694;DHT22;27377;50.666;9.150;2024-02-21T13:49:02;8.30;99.90
41694;DHT22;27377;50.666;9.150;2024-02-21T13:51:48;8.30;99.90
41694;DHT22;27377;50.666;9.150;2024-02-21T13:54:32;8.30;99.90
41694;DHT22;27377;50.666;9.150;2024-02-21T13:57:16;8.30;99.90
41694;DHT22;27377;50.666;9.150;2024-02-21T14:00:00;8.30;99.90
41694;DHT22;27377;50.666;9.150;2024-02-21T14:02:45;8.30;99.90
41694;DHT22;27377;50.666;9.150;2024-02-21T14:05:29;8.40;99.90
41694;DHT22;27377;50.666;9.150;2024-02-21T14:08:14;8.40;99.90
41694;DHT22;27377;50.666;9.150;2024-02-21T14:10:59;8.40;99.90
41694;DHT22;27377;50.666;9.150;2024-02-21T14:13:44;8.40;99.90
41694;DHT22;27377;50.666;9.150;2024-02-21T14:16:29;8.40;99.90
41694;DHT22;27377;50.666;9.150;2024-02-21T14:19:14;8.40;99.90
41694;DHT22;27377;50.666;9.150;2024-02-21T14:21:59;8.40;99.90
41694;DHT22;27377;50.666;9.150;2024-02-21T14:24:43;8.40;99.90
41694;DHT22;27377;50.666;9.150;2024-02-21T14:27:27;8.40;99.90
41694;DHT22;27377;50.666;9.150;2024-02-21T14:30:12;8.40;99.90
41694;DHT22;27377;50.666;9.150;2024-02-21T14:32:56;8.40;99.90
41694;DHT22;27377;50.666;9.150;2024-02-21T14:35:41;8.40;99.90
41694;DHT22;27377;50.666;9.150;2024-02-21T14:38:26;8.40;99.90
41694;DHT22;27377;50.666;9.150;2024-02-21T14:41:11;8.40;99.90
41694;DHT22;27377;50.666;9.150;2024-02-21T14:43:58;8.40;99.90
41694;DHT22;27377;50.666;9.150;2024-02-21T14:46:44;8.50;99.90
41694;DHT22;27377;50.666;9.150;2024-02-21T14:49:28;8.40;99.90
41694;DHT22;27377;50.666;9.150;2024-02-21T14:52:12;8.40;99.90
41694;DHT22;27377;50.666;9.150;2024-02-21T14:54:56;8.40;99.90
41694;DHT22;27377;50.666;9.150;2024-02-21T14:57:40;8.40;99.90
41694;DHT22;27377;50.666;9.150;2024-02-21T15:00:27;8.40;99.90
41694;DHT22;27377;50.666;9.150;2024-02-21T15:03:16;8.50;99.90
41694;DHT22;27377;50.666;9.150;2024-02-21T15:06:03;8.50;99.90
41694;DHT22;27377;50.666;9.150;2024-02-21T15:08:47;8.50;99.90
41694;DHT22;27377;50.666;9.150;2024-02-21T15:11:33;8.50;99.90
41694;DHT22;27377;50.666;9.150;2024-02-21T15:14:17;8.40;99.90
41694;DHT22;27377;50.666;9.150;2024-02-21T15:17:01;8.40;99.90
41694;DHT22;27377;50.666;9.150;2024-02-21T15:19:45;8.40;99.90
41694;DHT22;27377;50.666;9.150;2024-02-21T15:22:29;8.40;99.90
41694;DHT22;27377;50.666;9.150;2024-02-21T15:25:14;8.40;99.90
41694;DHT22;27377;50.666;9.150;2024-02-21T15:27:58;8.40;99.90
41694;DHT22;27377;50.666;9.150;2024-02-21T15:30:43;8.40;99.90
41694;DHT22;27377;50.666;9.150;2024-02-21T15:33:27;8.40;99.90
41694;DHT22;27377;50.666;9.150;2024-02-21T15:36:11;8.40;99.90
41694;DHT22;27377;50.666;9.150;2024-02-21T15:38:55;8.40;99.90
41694;DHT22;27377;50.666;9.150;2024-02-21T15:41:40;8.40;99.90
41694;DHT22;27377;50.666;9.150;2024-02-21T15:44:24;8.40;99.90
41694;DHT22;27377;50.666;9.150;2024-02-21T15:47:08;8.40;99.90
41694;DHT22;27377;50.666;9.150;2024-02-21T15:49:52;8.40;99.90
41694;DHT22;27377;50.666;9.150;2024-02-21T15:52:37;8.40;99.90
41694;DHT22;27377;50.666;9.150;2024-02-21T15:55:21;8.40;99.90
41694;DHT22;27377;50.666;9.150;2024-02-21T15:58:05;8.40;99.90
41694;DHT22;27377;50.666;9.150;2024-02-21T16:00:49;8.40;99.90
41694;DHT22;27377;50.666;9.150;2024-02-21T16:03:34;8.40;99.90
41694;DHT22;27377;50.666;9.150;2024-02-21T16:06:18;8.40;99.90
41694;DHT22;27377;50.666;9.150;2024-02-21T16:09:02;8.40;99.90
41694;DHT22;27377;50.666;9.150;2024-02-21T16:11:49;8.30;99.90
41694;DHT22;27377;50.666;9.150;2024-02-21T16:14:34;8.30;99.90
41694;DHT22;27377;50.666;9.150;2024-02-21T16:17:18;8.30;99.90
41694;DHT22;27377;50.666;9.150;2024-02-21T16:20:03;8.40;99.90
41694;DHT22;27377;50.666;9.150;2024-02-21T16:22:48;8.40;99.90
41694;DHT22;27377;50.666;9.150;2024-02-21T16:25:32;8.40;99.90
41694;DHT22;27377;50.666;9.150;2024-02-21T16:28:17;8.40;99.90
41694;DHT22;27377;50.666;9.150;2024-02-21T16:31:01;8.40;99.90
41694;DHT22;27377;50.666;9.150;2024-02-21T16:33:45;8.40;99.90
41694;DHT22;27377;50.666;9.150;2024-02-21T16:36:29;8.30;99.90
41694;DHT22;27377;50.666;9.150;2024-02-21T16:39:14;8.30;99.90
41694;DHT22;27377;50.666;9.150;2024-02-21T16:42:00;8.30;99.90
41694;DHT22;27377;50.666;9.150;2024-02-21T16:44:47;8.30;99.90
41694;DHT22;27377;50.666;9.150;2024-02-21T16:47:32;8.30;99.90
41694;DHT22;27377;50.666;9.150;2024-02-21T16:50:16;8.30;99.90
41694;DHT22;27377;50.666;9.150;2024-02-21T16:53:00;8.30;99.90
41694;DHT22;27377;50.666;9.150;2024-02-21T16:55:47;8.30;99.90
41694;DHT22;27377;50.666;9.150;2024-02-21T16:58:33;8.30;99.90
41694;DHT22;27377;50.666;9.150;2024-02-21T17:01:20;8.30;99.90
41694;DHT22;27377;50.666;9.150;2024-02-21T17:04:05;8.40;99.90
41694;DHT22;27377;50.666;9.150;2024-02-21T17:06:50;8.30;99.90
41694;DHT22;27377;50.666;9.150;2024-02-21T17:09:36;8.30;99.90
41694;DHT22;27377;50.666;9.150;2024-02-21T17:12:20;8.30;99.90
41694;DHT22;27377;50.666;9.150;2024-02-21T17:15:04;8.40;99.90
41694;DHT22;27377;50.666;9.150;2024-02-21T17:17:49;8.30;99.90
41694;DHT22;27377;50.666;9.150;2024-02-21T17:20:34;8.30;99.90
41694;DHT22;27377;50.666;9.150;2024-02-21T17:23:18;8.30;99.90
41694;DHT22;27377;50.666;9.150;2024-02-21T17:26:02;8.30;99.90
41694;DHT22;27377;50.666;9.150;2024-02-21T17:28:46;8.30;99.90
41694;DHT22;27377;50.666;9.150;2024-02-21T17:31:30;8.30;99.90
41694;DHT22;27377;50.666;9.150;2024-02-21T17:34:14;8.30;99.90
41694;DHT22;27377;50.666;9.150;2024-02-21T17:36:58;8.30;99.90
41694;DHT22;27377;50.666;9.150;2024-02-21T17:39:42;8.30;99.90
41694;DHT22;27377;50.666;9.150;2024-02-21T17:42:26;8.30;99.90